Time;durP1;ratioP1;P1;durP2;ratioP2;P2;SDS_P1;SDS_P2;PMS_P1;PMS_P2;Temp;Humidity;BMP_temperature;BMP_pressure;BME280_temperature;BME280_humidity;BME280_pressure;Samples;Min_cycle;Max_cycle;Signal;HPM_P1;HPM_P2
2022/02/08 00:01:22;;;;;;;7.85;3.65;;;3.80;99.90;;;;;;5033841;28;20034;-45
2022/02/08 00:03:48;;;;;;;9.75;3.78;;;3.70;99.90;;;;;;5034808;28;20083;-46
2022/02/08 00:08:40;;;;;;;14.27;3.35;;;3.70;99.90;;;;;;5035150;28;20022;-45
2022/02/08 00:11:06;;;;;;;12.70;4.32;;;3.70;99.90;;;;;;5034903;28;20044;-47
2022/02/08 00:13:31;;;;;;;10.07;3.83;;;3.70;99.90;;;;;;5034778;28;20033;-44
2022/02/08 00:15:57;;;;;;;9.85;4.45;;;3.70;99.90;;;;;;5034699;28;20397;-45
2022/02/08 00:18:23;;;;;;;8.25;4.35;;;3.60;99.90;;;;;;5035225;28;20544;-44
2022/02/08 00:20:48;;;;;;;10.80;4.20;;;3.60;99.90;;;;;;5035017;28;20079;-44
2022/02/08 00:23:14;;;;;;;11.25;3.55;;;3.50;99.90;;;;;;5034648;28;20134;-44
2022/02/08 00:25:39;;;;;;;9.10;3.47;;;3.50;99.90;;;;;;5034966;28;20048;-46
2022/02/08 00:28:05;;;;;;;10.85;3.80;;;3.40;99.90;;;;;;5035114;28;20021;-44
2022/02/08 00:30:30;;;;;;;9.63;3.33;;;3.40;99.90;;;;;;5034681;28;20032;-45
2022/02/08 00:32:56;;;;;;;10.63;3.42;;;3.40;99.90;;;;;;5034479;28;20030;-46
2022/02/08 00:35:21;;;;;;;10.40;4.20;;;3.40;99.90;;;;;;5034213;28;20392;-56
2022/02/08 00:37:47;;;;;;;13.90;4.10;;;3.40;99.90;;;;;;5034900;28;20040;-45
2022/02/08 00:40:13;;;;;;;15.57;3.92;;;3.40;99.90;;;;;;5034540;28;20436;-44
2022/02/08 00:42:38;;;;;;;16.92;4.30;;;3.40;99.90;;;;;;5034602;28;20032;-44
2022/02/08 00:47:39;;;;;;;7.05;3.53;;;3.30;99.90;;;;;;5034202;28;20029;-44
2022/02/08 00:50:07;;;;;;;13.18;4.75;;;3.30;99.90;;;;;;5034182;28;20022;-47
2022/02/08 00:52:34;;;;;;;8.23;4.15;;;3.20;99.90;;;;;;5034071;28;20049;-46
2022/02/08 00:55:00;;;;;;;13.90;4.35;;;3.20;99.90;;;;;;5032516;28;20030;-43
2022/02/08 00:57:26;;;;;;;17.48;4.68;;;3.20;99.90;;;;;;5032463;28;20611;-45
2022/02/08 00:59:52;;;;;;;10.60;4.05;;;3.20;99.90;;;;;;5033909;28;20108;-46
2022/02/08 01:02:18;;;;;;;12.77;4.32;;;3.20;99.90;;;;;;5033836;28;20414;-44
2022/02/08 01:04:49;;;;;;;10.93;3.70;;;3.20;99.90;;;;;;5033245;28;20026;-44
2022/02/08 01:07:14;;;;;;;10.15;4.30;;;3.30;99.90;;;;;;5033857;28;20128;-44
2022/02/08 01:09:49;;;;;;;14.15;4.50;;;3.30;99.90;;;;;;5033662;28;20113;-43
2022/02/08 01:12:15;;;;;;;16.08;4.15;;;3.40;99.90;;;;;;5033629;28;20032;-44
2022/02/08 01:14:43;;;;;;;10.98;4.15;;;3.50;99.90;;;;;;5033544;28;20026;-43
2022/02/08 01:17:10;;;;;;;15.45;4.25;;;3.50;99.90;;;;;;5034129;28;20080;-43
2022/02/08 01:19:40;;;;;;;8.90;4.03;;;3.60;99.90;;;;;;5033592;28;20029;-43
2022/02/08 01:22:05;;;;;;;16.83;4.72;;;3.60;99.90;;;;;;5033682;28;20033;-45
2022/02/08 01:24:31;;;;;;;20.17;5.28;;;3.60;99.90;;;;;;5033344;28;20069;-44
2022/02/08 01:27:05;;;;;;;14.98;4.82;;;3.70;99.90;;;;;;5033290;28;20037;-45
2022/02/08 01:29:40;;;;;;;13.70;4.45;;;3.60;99.90;;;;;;5033390;28;20026;-45
2022/02/08 01:32:31;;;;;;;;;;;3.70;99.90;;;;;;5034055;28;20450;-42
2022/02/08 01:37:52;;;;;;;11.05;3.78;;;3.70;99.90;;;;;;5032764;28;20045;-43
2022/02/08 01:40:51;;;;;;;10.63;3.63;;;3.60;99.90;;;;;;5033408;28;20496;-43
2022/02/08 01:43:40;;;;;;;16.30;4.22;;;3.70;99.90;;;;;;5031634;28;20026;-44
2022/02/08 01:46:26;;;;;;;13.93;3.85;;;3.70;99.90;;;;;;5033072;28;20038;-44
2022/02/08 01:48:58;;;;;;;17.40;4.43;;;3.80;99.90;;;;;;5058453;22;20140;-44
2022/02/08 01:51:24;;;;;;;15.23;4.13;;;3.90;99.90;;;;;;5051828;28;20031;-47
2022/02/08 01:53:50;;;;;;;18.08;5.18;;;3.90;99.90;;;;;;5052760;28;20493;-45
2022/02/08 01:56:15;;;;;;;7.05;3.67;;;3.90;99.90;;;;;;5052947;28;20099;-46
2022/02/08 01:58:41;;;;;;;8.95;3.80;;;3.90;99.90;;;;;;5051666;28;20060;-46
2022/02/08 02:01:08;;;;;;;12.23;3.72;;;4.00;99.90;;;;;;5052762;28;20029;-48
2022/02/08 02:03:35;;;;;;;22.48;7.05;;;4.00;99.90;;;;;;5052355;28;20480;-48
2022/02/08 02:06:01;;;;;;;17.80;8.05;;;4.00;99.90;;;;;;5053192;28;20566;-48
2022/02/08 02:08:26;;;;;;;11.88;4.32;;;3.90;99.90;;;;;;5052689;28;20037;-48
2022/02/08 02:10:52;;;;;;;15.05;3.42;;;4.00;99.90;;;;;;5052788;28;20108;-45
2022/02/08 02:13:43;;;;;;;11.55;2.83;;;4.00;99.90;;;;;;5051080;28;20060;-46
2022/02/08 02:16:05;;;;;;;9.65;3.92;;;4.10;99.90;;;;;;5052248;28;20029;-50
2022/02/08 02:18:31;;;;;;;11.00;3.60;;;4.10;99.90;;;;;;5052537;28;20033;-45
2022/02/08 02:20:56;;;;;;;9.00;3.30;;;4.10;99.90;;;;;;5052496;28;20070;-48
2022/02/08 02:23:22;;;;;;;12.80;3.28;;;4.10;99.90;;;;;;5051043;28;20480;-48
2022/02/08 02:25:47;;;;;;;14.00;3.22;;;4.20;99.90;;;;;;5052507;28;20033;-47
2022/02/08 02:28:13;;;;;;;10.02;3.13;;;4.20;99.90;;;;;;5051088;28;20064;-48
2022/02/08 02:30:39;;;;;;;11.40;2.97;;;4.20;99.90;;;;;;5052413;28;20104;-48
2022/02/08 02:33:06;;;;;;;15.85;3.42;;;4.20;99.90;;;;;;5052226;28;20074;-50
2022/02/08 02:35:32;;;;;;;12.70;2.60;;;4.30;99.90;;;;;;5051776;28;20439;-50
2022/02/08 02:37:59;;;;;;;13.23;3.17;;;4.40;99.90;;;;;;5052455;28;20024;-49
2022/02/08 02:40:25;;;;;;;8.98;2.65;;;4.40;99.90;;;;;;5052398;28;20117;-45
2022/02/08 02:42:52;;;;;;;16.33;4.03;;;4.50;99.90;;;;;;5052048;28;20029;-48
2022/02/08 02:45:21;;;;;;;9.07;2.83;;;4.50;99.90;;;;;;5052200;28;20041;-45
2022/02/08 02:47:50;;;;;;;12.98;3.47;;;4.50;99.90;;;;;;5052004;28;20074;-45
2022/02/08 02:50:15;;;;;;;7.97;2.95;;;4.60;99.90;;;;;;5050592;28;20028;-46
2022/02/08 02:52:41;;;;;;;15.90;3.03;;;4.60;99.90;;;;;;5052117;28;20446;-46
2022/02/08 02:55:07;;;;;;;10.27;2.83;;;4.60;99.90;;;;;;5051930;28;20044;-45
2022/02/08 02:57:32;;;;;;;13.05;4.45;;;4.70;99.90;;;;;;5051986;28;20052;-47
2022/02/08 03:00:08;;;;;;;16.73;3.70;;;4.70;99.90;;;;;;5051825;28;20492;-45
2022/02/08 03:02:44;;;;;;;12.65;2.78;;;4.70;99.90;;;;;;5051781;28;20055;-45
2022/02/08 03:05:50;;;;;;;;;;;4.80;99.90;;;;;;5052163;28;20414;-49
2022/02/08 03:19:05;;;;;;;18.70;3.58;;;4.90;99.90;;;;;;5051340;28;20174;-47
2022/02/08 03:21:31;;;;;;;15.65;3.35;;;5.00;99.90;;;;;;5051506;28;20107;-48
2022/02/08 03:23:56;;;;;;;13.10;3.90;;;5.00;99.90;;;;;;5051185;28;20029;-47
2022/02/08 03:26:22;;;;;;;7.07;2.47;;;5.00;99.90;;;;;;5051430;28;20404;-45
2022/02/08 03:28:47;;;;;;;9.73;2.83;;;5.00;99.90;;;;;;5051265;28;20036;-48
2022/02/08 03:31:13;;;;;;;17.15;3.45;;;5.00;99.90;;;;;;5051384;28;20537;-50
2022/02/08 03:33:40;;;;;;;12.43;4.30;;;5.00;99.90;;;;;;5051035;28;20029;-47
2022/02/08 03:36:05;;;;;;;10.75;3.40;;;5.00;99.90;;;;;;5051249;28;20021;-47
2022/02/08 03:38:36;;;;;;;8.02;2.60;;;5.00;99.90;;;;;;5051213;28;20476;-47
2022/02/08 03:41:03;;;;;;;9.38;2.35;;;5.10;99.90;;;;;;5049960;28;20036;-47
2022/02/08 03:43:31;;;;;;;12.43;2.92;;;5.00;99.90;;;;;;5051117;28;20040;-46
2022/02/08 03:46:01;;;;;;;10.18;2.95;;;5.00;99.90;;;;;;5051324;28;20036;-49
2022/02/08 03:48:29;;;;;;;22.67;3.20;;;5.00;99.90;;;;;;5050883;28;20560;-45
2022/02/08 03:51:02;;;;;;;10.35;3.42;;;5.00;99.90;;;;;;5051259;28;20052;-49
2022/02/08 03:53:27;;;;;;;8.02;2.47;;;5.00;99.90;;;;;;5050958;28;20017;-46
2022/02/08 03:55:53;;;;;;;11.60;3.55;;;4.90;99.90;;;;;;5051132;28;20078;-45
2022/02/08 03:58:19;;;;;;;7.75;3.00;;;4.90;99.90;;;;;;5051047;28;20507;-45
2022/02/08 04:03:10;;;;;;;12.25;2.90;;;4.90;99.90;;;;;;5050828;28;20024;-44
2022/02/08 04:05:41;;;;;;;9.38;2.90;;;4.90;99.90;;;;;;5051149;28;20052;-47
2022/02/08 04:08:10;;;;;;;9.82;2.58;;;4.90;99.90;;;;;;5051157;28;20120;-46
2022/02/08 04:10:35;;;;;;;9.80;2.92;;;4.90;99.90;;;;;;5049525;28;20062;-46
2022/02/08 04:13:13;;;;;;;16.77;3.10;;;4.90;99.90;;;;;;5050764;28;20372;-46
2022/02/08 04:18:37;;;;;;;7.45;2.88;;;4.90;99.90;;;;;;5051149;28;20024;-46
2022/02/08 04:37:47;;;;;;;9.80;3.15;;;4.80;99.90;;;;;;5054332;28;20400;-46
2022/02/08 04:50:45;;;;;;;6.90;2.80;;;4.70;99.90;;;;;;4992625;28;20034;-45
2022/02/08 04:53:18;;;;;;;12.77;2.83;;;4.80;99.90;;;;;;5022050;28;20047;-49
2022/02/08 04:55:54;;;;;;;20.67;4.57;;;4.70;99.90;;;;;;5054088;28;20013;-49
2022/02/08 04:58:33;;;;;;;16.67;4.40;;;4.70;99.90;;;;;;5054039;28;20104;-45
2022/02/08 05:01:45;;;;;;;17.67;3.30;;;4.70;99.90;;;;;;5053881;28;20027;-49
2022/02/08 05:34:35;;;;;;;12.43;2.95;;;4.90;99.90;;;;;;5054773;28;20128;-48
2022/02/08 05:42:42;;;;;;;13.68;3.55;;;4.80;99.90;;;;;;5053460;28;20078;-47
2022/02/08 05:47:44;;;;;;;16.27;4.22;;;4.80;99.90;;;;;;5053417;28;20025;-47
2022/02/08 05:55:23;;;;;;;11.60;4.32;;;4.80;99.90;;;;;;5053013;28;20373;-45
2022/02/08 05:57:51;;;;;;;11.20;4.38;;;4.90;99.90;;;;;;5051748;28;20067;-41
2022/02/08 06:00:17;;;;;;;13.32;3.45;;;4.90;99.90;;;;;;5053350;28;20024;-48
2022/02/08 06:02:42;;;;;;;7.47;3.15;;;4.80;99.90;;;;;;5052622;28;20029;-44
2022/02/08 06:05:13;;;;;;;10.07;3.88;;;4.80;99.90;;;;;;5052990;28;20021;-48
2022/02/08 06:07:39;;;;;;;11.65;3.72;;;4.80;99.90;;;;;;5053027;28;20108;-44
2022/02/08 06:10:05;;;;;;;13.75;4.07;;;4.80;99.90;;;;;;5052693;28;20598;-45
2022/02/08 06:12:30;;;;;;;15.20;4.82;;;4.80;99.90;;;;;;5052632;28;20104;-47
2022/02/08 06:14:59;;;;;;;16.70;3.05;;;4.80;99.90;;;;;;5052391;28;20335;-49
2022/02/08 06:17:25;;;;;;;9.98;3.30;;;4.80;99.90;;;;;;5052613;28;20025;-45
2022/02/08 06:19:55;;;;;;;10.65;3.47;;;4.80;99.90;;;;;;5052578;28;20036;-45
2022/02/08 06:22:21;;;;;;;19.83;4.20;;;4.80;99.90;;;;;;5052615;28;20021;-46
2022/02/08 06:24:46;;;;;;;8.60;2.88;;;4.80;99.90;;;;;;5052281;28;20531;-46
2022/02/08 06:27:12;;;;;;;16.48;4.65;;;4.80;99.90;;;;;;5052478;28;20060;-47
2022/02/08 06:29:37;;;;;;;10.15;3.80;;;4.70;99.90;;;;;;5052017;28;20025;-47
2022/02/08 06:32:03;;;;;;;12.57;3.83;;;4.70;99.90;;;;;;5052389;28;20079;-48
2022/02/08 06:34:31;;;;;;;15.02;4.20;;;4.60;99.90;;;;;;5051992;28;20384;-50
2022/02/08 06:37:03;;;;;;;9.55;3.40;;;4.70;99.90;;;;;;5051919;28;20017;-49
2022/02/08 06:39:34;;;;;;;20.90;5.00;;;4.70;99.90;;;;;;5052073;28;20399;-51
2022/02/08 06:41:59;;;;;;;23.10;5.38;;;4.60;99.90;;;;;;5052341;28;20055;-39
2022/02/08 06:44:25;;;;;;;12.27;3.30;;;4.60;99.90;;;;;;5051934;28;20025;-46
2022/02/08 06:46:50;;;;;;;16.40;5.45;;;4.60;99.90;;;;;;5052137;28;20028;-48
2022/02/08 06:49:17;;;;;;;14.60;4.80;;;4.50;99.90;;;;;;5051647;28;20111;-46
2022/02/08 06:51:42;;;;;;;17.45;4.70;;;4.40;99.90;;;;;;5052603;28;20021;-55
2022/02/08 06:54:08;;;;;;;13.60;4.25;;;4.40;99.90;;;;;;5051608;28;20021;-42
2022/02/08 06:56:34;;;;;;;20.45;4.65;;;4.50;99.90;;;;;;5050517;28;20024;-44
2022/02/08 06:59:06;;;;;;;17.08;4.65;;;4.50;99.90;;;;;;5051958;28;20067;-49
2022/02/08 07:01:33;;;;;;;15.23;4.53;;;4.50;99.90;;;;;;5050625;28;20035;-51
2022/02/08 07:04:00;;;;;;;19.45;4.40;;;4.50;99.90;;;;;;5051586;28;20094;-43
2022/02/08 07:06:26;;;;;;;9.05;4.15;;;4.50;99.90;;;;;;5051813;28;20431;-44
2022/02/08 07:08:51;;;;;;;14.57;4.18;;;4.50;99.90;;;;;;5051485;28;20029;-49
2022/02/08 07:11:17;;;;;;;18.77;4.53;;;4.60;99.90;;;;;;5051832;28;20396;-49
2022/02/08 07:13:45;;;;;;;14.40;4.20;;;4.50;99.90;;;;;;5051508;28;20400;-45
2022/02/08 07:16:12;;;;;;;15.68;4.15;;;4.60;99.90;;;;;;5051594;28;20389;-45
2022/02/08 07:18:37;;;;;;;14.98;4.28;;;4.60;99.90;;;;;;5051605;28;20031;-42
2022/02/08 07:21:03;;;;;;;10.63;3.70;;;4.60;99.90;;;;;;5051527;28;20122;-47
2022/02/08 07:23:29;;;;;;;13.73;4.05;;;4.70;99.90;;;;;;5049951;28;20029;-46
2022/02/08 07:25:55;;;;;;;9.15;3.63;;;4.60;99.90;;;;;;5051611;28;20082;-50
2022/02/08 07:28:21;;;;;;;9.73;3.80;;;4.60;99.90;;;;;;5051346;28;20385;-47
2022/02/08 07:30:46;;;;;;;11.30;3.58;;;4.60;99.90;;;;;;5051437;28;20107;-49
2022/02/08 07:33:12;;;;;;;11.73;4.10;;;4.60;99.90;;;;;;5051211;28;20476;-47
2022/02/08 07:35:53;;;;;;;14.63;3.95;;;4.60;99.90;;;;;;5051256;28;20032;-48
2022/02/08 07:38:23;;;;;;;14.10;4.05;;;4.80;99.90;;;;;;5051953;28;20484;-49
2022/02/08 07:43:18;;;;;;;21.63;3.92;;;4.90;99.90;;;;;;5051371;28;20025;-47
2022/02/08 07:45:44;;;;;;;17.02;5.53;;;5.00;99.90;;;;;;5051410;28;20029;-46
2022/02/08 07:48:10;;;;;;;16.05;5.80;;;5.10;99.90;;;;;;5051290;28;20029;-46
2022/02/08 07:50:39;;;;;;;20.70;4.40;;;5.20;99.90;;;;;;5070288;22;20405;-43
2022/02/08 07:53:08;;;;;;;13.75;5.47;;;5.40;99.90;;;;;;5050331;28;20017;-45
2022/02/08 07:55:33;;;;;;;11.48;3.80;;;5.50;99.90;;;;;;5051282;28;20116;-43
2022/02/08 07:57:59;;;;;;;19.05;5.45;;;5.60;99.90;;;;;;5051154;28;20429;-43
2022/02/08 08:00:24;;;;;;;23.00;4.05;;;5.70;99.90;;;;;;5051189;28;20029;-43
2022/02/08 08:02:52;;;;;;;15.00;3.65;;;5.70;99.90;;;;;;5054981;28;20430;-43
2022/02/08 08:05:18;;;;;;;20.80;5.13;;;5.70;99.90;;;;;;5055338;28;20021;-43
2022/02/08 08:07:45;;;;;;;8.93;3.92;;;5.80;99.90;;;;;;5053746;28;20112;-43
2022/02/08 08:10:17;;;;;;;13.77;5.70;;;5.80;99.90;;;;;;5055003;28;20033;-46
2022/02/08 08:12:48;;;;;;;23.02;4.35;;;5.80;99.90;;;;;;5054725;28;20040;-46
2022/02/08 08:15:32;;;;;;;12.98;3.80;;;5.80;99.90;;;;;;5053603;28;20036;-45
2022/02/08 08:20:42;;;;;;;17.33;4.50;;;5.70;99.90;;;;;;5054733;28;20086;-44
2022/02/08 08:23:08;;;;;;;16.10;4.50;;;5.70;99.90;;;;;;5054566;28;20439;-43
2022/02/08 08:25:34;;;;;;;11.55;3.75;;;5.70;99.90;;;;;;5054706;28;20033;-46
2022/02/08 08:27:59;;;;;;;12.02;4.20;;;5.70;99.90;;;;;;5054376;28;20025;-46
2022/02/08 08:30:25;;;;;;;21.88;4.43;;;5.70;99.90;;;;;;5054633;28;20025;-45
2022/02/08 08:32:51;;;;;;;14.48;5.20;;;5.70;99.90;;;;;;5054422;28;20025;-45
2022/02/08 08:35:20;;;;;;;10.68;3.60;;;5.70;99.90;;;;;;5054470;28;20036;-49
2022/02/08 08:37:47;;;;;;;18.67;4.47;;;5.70;99.90;;;;;;5053163;28;20032;-44
2022/02/08 08:40:25;;;;;;;14.93;4.68;;;5.70;99.90;;;;;;5052868;28;20025;-44
2022/02/08 08:43:45;;;;;;;19.10;6.80;;;5.70;99.90;;;;;;5054117;28;20515;-43
2022/02/08 08:48:49;;;;;;;14.98;3.60;;;5.70;99.90;;;;;;5038021;28;20094;-44
2022/02/08 08:53:46;;;;;;;15.05;4.40;;;5.70;99.90;;;;;;5053856;28;20024;-46
2022/02/08 08:56:12;;;;;;;18.92;3.90;;;5.80;99.90;;;;;;5053995;28;20013;-47
2022/02/08 08:58:43;;;;;;;17.00;5.00;;;5.70;99.90;;;;;;5054053;28;20083;-46
2022/02/08 09:01:12;;;;;;;17.15;4.50;;;5.80;99.90;;;;;;5053768;28;20033;-46
2022/02/08 09:03:38;;;;;;;13.90;4.30;;;5.80;99.90;;;;;;5052478;28;20029;-47
2022/02/08 09:06:04;;;;;;;19.55;4.38;;;6.00;99.90;;;;;;5054038;28;20025;-44
2022/02/08 09:08:33;;;;;;;17.65;4.32;;;6.00;99.90;;;;;;5053844;28;20082;-44
2022/02/08 09:11:08;;;;;;;11.23;3.50;;;6.20;99.90;;;;;;5053701;28;20025;-43
2022/02/08 09:13:41;;;;;;;13.80;4.57;;;6.30;99.90;;;;;;5050914;28;20025;-47
2022/02/08 09:19:09;;;;;;;20.42;3.72;;;6.60;99.90;;;;;;5053795;28;20496;-46
2022/02/08 09:22:00;;;;;;;18.02;4.40;;;6.60;99.90;;;;;;5053453;28;20083;-48
2022/02/08 09:30:09;;;;;;;18.38;3.53;;;6.80;99.90;;;;;;4997883;28;20034;-44
2022/02/08 09:35:04;;;;;;;16.83;5.40;;;6.90;99.90;;;;;;5042570;28;20112;-41
2022/02/08 09:37:30;;;;;;;12.20;3.55;;;7.00;99.90;;;;;;5053444;28;20025;-43
2022/02/08 09:39:55;;;;;;;11.40;4.63;;;7.00;99.90;;;;;;5052773;28;20534;-46
2022/02/08 09:42:21;;;;;;;14.90;3.92;;;7.10;99.90;;;;;;5033601;28;20026;-44
2022/02/08 09:44:47;;;;;;;14.90;4.50;;;7.10;99.90;;;;;;5032959;28;20030;-45
2022/02/08 09:47:16;;;;;;;6.43;3.78;;;7.10;99.90;;;;;;5034164;28;20026;-47
2022/02/08 09:49:51;;;;;;;11.43;3.25;;;7.10;99.90;;;;;;5052737;28;20031;-43
2022/02/08 09:52:18;;;;;;;8.25;3.33;;;7.30;99.90;;;;;;5052977;28;20092;-46
2022/02/08 09:54:44;;;;;;;6.90;3.33;;;7.30;99.90;;;;;;5051097;28;20029;-45
2022/02/08 09:57:12;;;;;;;6.93;2.70;;;7.50;99.90;;;;;;5034641;28;20485;-44
2022/02/08 09:59:37;;;;;;;11.45;3.28;;;7.50;99.90;;;;;;5040845;28;20086;-43
2022/02/08 10:02:03;;;;;;;8.85;2.70;;;7.60;99.90;;;;;;5050954;28;20451;-45
2022/02/08 10:04:29;;;;;;;10.15;3.25;;;7.60;99.90;;;;;;5052440;28;20487;-43
2022/02/08 10:06:55;;;;;;;7.82;3.10;;;7.70;99.90;;;;;;5050692;28;20511;-45
2022/02/08 10:09:31;;;;;;;9.95;3.13;;;7.80;99.90;;;;;;5042518;28;20051;-45
2022/02/08 10:11:58;;;;;;;7.60;3.13;;;7.70;99.90;;;;;;5045931;28;20101;-46
2022/02/08 10:22:47;;;;;;;3.22;2.00;;;7.70;99.90;;;;;;5032899;28;20037;-45
2022/02/08 10:25:21;;;;;;;10.20;4.43;;;7.70;99.90;;;;;;5030598;28;20029;-46
2022/02/08 10:28:53;;;;;;;6.60;2.50;;;7.70;99.90;;;;;;5036083;28;20105;-42
2022/02/08 10:31:08;;;;;;;7.68;3.10;;;7.80;99.90;;;;;;5041731;28;20033;-44
2022/02/08 10:39:26;;;;;;;8.07;3.55;;;7.90;99.90;;;;;;5040932;28;20059;-41
2022/02/08 10:41:51;;;;;;;9.68;3.00;;;7.90;99.90;;;;;;5051992;28;20035;-44
2022/02/08 10:44:17;;;;;;;16.15;3.70;;;7.80;99.90;;;;;;5050369;28;20033;-44
2022/02/08 10:46:43;;;;;;;9.23;2.72;;;7.90;99.90;;;;;;5052504;28;20029;-45
2022/02/08 10:49:14;;;;;;;9.88;3.78;;;8.00;99.90;;;;;;5051968;28;20408;-47
2022/02/08 10:51:51;;;;;;;8.93;2.47;;;8.10;99.90;;;;;;5052049;28;20045;-41
2022/02/08 10:54:42;;;;;;;8.27;2.67;;;8.20;99.90;;;;;;5051438;28;20025;-45
2022/02/08 10:57:14;;;;;;;8.63;4.13;;;8.30;99.90;;;;;;5052001;28;20424;-47
2022/02/08 10:59:50;;;;;;;6.50;2.90;;;8.30;99.90;;;;;;5051778;28;20112;-43
2022/02/08 11:02:23;;;;;;;6.15;2.13;;;8.40;99.90;;;;;;5051836;28;20452;-43
2022/02/08 11:04:57;;;;;;;4.85;2.03;;;8.30;99.90;;;;;;5051308;28;20025;-48
2022/02/08 11:07:56;;;;;;;7.15;2.78;;;8.30;99.90;;;;;;5050525;28;20024;-46
2022/02/08 11:10:41;;;;;;;6.50;2.10;;;8.30;99.90;;;;;;5051273;28;20456;-45
2022/02/08 11:13:44;;;;;;;2.72;2.10;;;8.30;99.90;;;;;;5042543;28;20072;-43
2022/02/08 11:16:42;;;;;;;12.18;2.75;;;8.30;99.90;;;;;;5041264;28;20064;-44
2022/02/08 11:22:04;;;;;;;5.47;1.90;;;8.20;99.90;;;;;;5040140;28;20029;-42
2022/02/08 11:24:41;;;;;;;3.13;2.00;;;8.20;99.90;;;;;;5029966;28;20079;-45
2022/02/08 11:27:14;;;;;;;5.80;2.13;;;8.30;99.90;;;;;;5030064;28;20230;-47
2022/02/08 11:30:02;;;;;;;9.95;2.70;;;8.30;99.90;;;;;;5031105;28;20377;-46
2022/02/08 11:32:53;;;;;;;5.40;3.08;;;8.30;99.90;;;;;;5031934;28;20025;-45
2022/02/08 11:46:51;;;;;;;7.35;2.88;;;8.10;99.90;;;;;;5031390;28;20497;-44
2022/02/08 11:49:33;;;;;;;3.95;2.63;;;8.20;99.90;;;;;;5031109;28;20042;-44
2022/02/08 12:07:29;;;;;;;6.93;2.92;;;8.30;99.90;;;;;;5031459;28;20033;-44
2022/02/08 12:10:05;;;;;;;3.40;2.30;;;8.30;99.90;;;;;;5034503;28;20168;-45
2022/02/08 12:32:26;;;;;;;8.18;3.00;;;8.20;99.90;;;;;;5050010;28;20116;-42
2022/02/08 12:56:45;;;;;;;3.55;2.45;;;8.10;99.90;;;;;;5043482;28;20543;-44
2022/02/08 13:03:10;;;;;;;4.90;3.10;;;8.10;99.90;;;;;;5034600;28;20060;-47
2022/02/08 13:19:37;;;;;;;5.47;3.08;;;8.10;99.90;;;;;;5053447;28;20056;-41
2022/02/08 14:03:43;;;;;;;7.32;3.95;;;7.80;99.90;;;;;;5033295;28;20465;-44
2022/02/08 14:06:14;;;;;;;8.00;4.03;;;7.80;99.90;;;;;;5032723;28;20044;-42
2022/02/08 14:11:25;;;;;;;7.95;4.35;;;7.80;99.90;;;;;;5033852;28;20272;-43
2022/02/08 14:24:47;;;;;;;12.57;5.25;;;7.80;99.90;;;;;;5032808;28;20021;-45
2022/02/08 14:30:01;;;;;;;9.43;4.38;;;7.80;99.90;;;;;;5036458;28;20035;-43
2022/02/08 14:49:09;;;;;;;6.95;3.95;;;7.80;99.90;;;;;;5040320;28;20545;-45
2022/02/08 15:08:11;;;;;;;9.25;4.85;;;7.90;99.90;;;;;;5052023;28;20027;-48
2022/02/08 15:10:41;;;;;;;8.73;4.68;;;7.90;99.90;;;;;;5051411;28;20029;-42
2022/02/08 15:13:10;;;;;;;7.57;4.50;;;7.80;99.90;;;;;;5051285;28;20029;-48
2022/02/08 15:15:53;;;;;;;7.95;5.05;;;8.00;99.90;;;;;;5051354;28;20013;-48
2022/02/08 15:18:18;;;;;;;9.27;4.90;;;8.00;99.90;;;;;;5051495;28;20059;-43
2022/02/08 15:20:44;;;;;;;10.27;4.53;;;8.00;99.90;;;;;;5051298;28;20445;-47
2022/02/08 15:23:11;;;;;;;8.38;4.53;;;8.00;99.90;;;;;;5051174;28;20369;-43
2022/02/08 15:25:37;;;;;;;8.05;3.72;;;8.00;99.90;;;;;;5051454;28;20025;-49
2022/02/08 15:28:05;;;;;;;7.13;4.35;;;8.00;99.90;;;;;;5051294;28;20021;-45
2022/02/08 15:30:33;;;;;;;8.07;4.53;;;8.00;99.90;;;;;;5051225;28;20052;-45
2022/02/08 15:32:59;;;;;;;6.97;4.78;;;8.00;99.90;;;;;;5050337;28;20100;-45
2022/02/08 15:35:25;;;;;;;15.70;4.95;;;8.10;99.90;;;;;;5051138;28;20029;-45
2022/02/08 15:37:51;;;;;;;8.75;4.25;;;8.10;99.90;;;;;;5050968;28;20496;-46
2022/02/08 15:40:20;;;;;;;6.38;4.68;;;8.10;99.90;;;;;;5051138;28;20032;-46
2022/02/08 15:42:47;;;;;;;5.22;4.22;;;8.10;99.90;;;;;;5050764;28;20493;-45
2022/02/08 15:45:37;;;;;;;7.18;4.75;;;8.00;99.90;;;;;;5051068;28;20487;-45
2022/02/08 15:48:00;;;;;;;8.10;5.15;;;8.10;99.90;;;;;;5035311;28;20312;-48
2022/02/08 16:01:14;;;;;;;12.30;5.43;;;8.00;99.90;;;;;;5051139;28;20029;-46
2022/02/08 16:09:21;;;;;;;10.57;4.72;;;8.00;99.90;;;;;;5050931;28;20025;-46
2022/02/08 16:14:41;;;;;;;11.25;5.45;;;8.00;99.90;;;;;;5050433;28;20109;-47
2022/02/08 16:20:00;;;;;;;13.52;5.22;;;8.00;99.90;;;;;;5049379;28;20029;-44
2022/02/08 16:23:01;;;;;;;10.60;5.68;;;8.00;99.90;;;;;;5051281;28;20045;-44
2022/02/08 16:31:06;;;;;;;12.35;4.47;;;7.90;99.90;;;;;;5024971;28;20061;-45
2022/02/08 16:48:28;;;;;;;14.85;4.53;;;8.10;99.90;;;;;;5046160;28;20035;-46
2022/02/08 16:55:53;;;;;;;6.70;3.80;;;8.10;99.90;;;;;;5034273;28;20268;-46
2022/02/08 17:00:49;;;;;;;7.53;4.32;;;8.10;99.90;;;;;;5060586;22;20045;-40
2022/02/08 17:03:20;;;;;;;9.75;4.65;;;8.10;99.90;;;;;;5029105;28;20393;-50
2022/02/08 17:05:46;;;;;;;8.45;3.63;;;8.10;99.90;;;;;;5020656;28;20083;-44
2022/02/08 17:08:13;;;;;;;6.10;4.18;;;8.00;99.90;;;;;;5013692;28;20113;-45
2022/02/08 17:10:43;;;;;;;7.03;3.35;;;8.00;99.90;;;;;;5013724;28;20033;-47
2022/02/08 17:13:27;;;;;;;6.32;3.78;;;8.00;99.90;;;;;;5014000;28;20371;-47
2022/02/08 17:16:05;;;;;;;8.32;4.47;;;8.00;99.90;;;;;;5013893;28;20033;-47
2022/02/08 17:35:52;;;;;;;8.07;3.58;;;8.00;99.90;;;;;;5002362;28;20044;-50
2022/02/08 17:45:08;;;;;;;7.30;4.03;;;8.00;99.90;;;;;;5002738;28;20027;-46
2022/02/08 17:46:18;;;;;;;7.22;3.70;;;8.10;99.90;;;;;;5012064;28;20452;-40
2022/02/08 17:48:44;;;;;;;8.30;3.72;;;8.10;99.90;;;;;;5012747;28;20028;-39
2022/02/08 17:51:09;;;;;;;6.45;3.92;;;8.10;99.90;;;;;;5000683;28;20128;-47
2022/02/08 17:53:35;;;;;;;4.45;4.05;;;8.10;99.90;;;;;;4991499;28;20037;-49
2022/02/08 17:56:01;;;;;;;5.45;4.18;;;8.00;99.90;;;;;;4996308;28;20026;-49
2022/02/08 17:58:26;;;;;;;7.07;4.32;;;8.10;99.90;;;;;;5009907;28;20401;-49
2022/02/08 18:00:53;;;;;;;4.72;3.83;;;8.10;99.90;;;;;;5009903;28;20060;-47
2022/02/08 18:03:18;;;;;;;4.10;3.50;;;8.10;99.90;;;;;;5009805;28;20022;-50
2022/02/08 18:05:44;;;;;;;6.38;4.13;;;8.10;99.90;;;;;;5010051;28;20045;-48
2022/02/08 18:08:14;;;;;;;5.03;4.15;;;8.10;99.90;;;;;;5010235;28;20394;-47
2022/02/08 18:10:48;;;;;;;7.90;4.13;;;8.10;99.90;;;;;;5002718;28;20238;-43
2022/02/08 18:13:18;;;;;;;5.20;3.47;;;8.10;99.90;;;;;;5008390;28;20091;-48
2022/02/08 18:15:44;;;;;;;7.53;3.90;;;8.10;99.90;;;;;;5009984;28;20075;-49
2022/02/08 18:18:21;;;;;;;6.35;3.80;;;8.20;99.90;;;;;;5008514;28;20021;-48
2022/02/08 18:20:52;;;;;;;5.38;3.40;;;8.20;99.90;;;;;;5007051;28;20145;-50
2022/02/08 18:56:25;;;;;;;4.25;3.85;;;8.30;99.90;;;;;;5008724;28;20160;-43
2022/02/08 19:05:17;;;;;;;5.38;3.58;;;8.20;99.90;;;;;;5008426;28;20048;-47
2022/02/08 19:07:29;;;;;;;5.47;3.75;;;8.30;99.90;;;;;;5008981;28;20325;-47
2022/02/08 19:10:07;;;;;;;5.15;3.72;;;8.40;99.90;;;;;;5008503;28;20038;-47
2022/02/08 19:12:38;;;;;;;4.25;3.70;;;8.40;99.90;;;;;;5011209;28;20109;-47
2022/02/08 19:15:20;;;;;;;3.92;3.53;;;8.50;99.90;;;;;;5010353;28;20141;-41
2022/02/08 19:20:36;;;;;;;5.57;4.72;;;8.50;99.90;;;;;;5011718;28;20607;-45
2022/02/08 19:23:02;;;;;;;7.97;4.07;;;8.40;99.90;;;;;;5011661;28;20018;-45
2022/02/08 19:25:27;;;;;;;5.35;3.70;;;8.50;99.90;;;;;;5012073;28;20022;-47
2022/02/08 19:27:55;;;;;;;3.97;3.45;;;8.50;99.90;;;;;;5010077;28;20117;-49
2022/02/08 19:30:21;;;;;;;6.50;3.88;;;8.50;99.90;;;;;;5011359;28;20076;-44
2022/02/08 19:32:46;;;;;;;5.15;4.38;;;8.50;99.90;;;;;;5011725;28;20025;-45
2022/02/08 19:35:14;;;;;;;5.13;3.30;;;8.40;99.90;;;;;;5009304;28;20041;-46
2022/02/08 19:37:40;;;;;;;7.03;3.95;;;8.40;99.90;;;;;;5009182;28;20033;-50
2022/02/08 19:40:08;;;;;;;3.65;3.30;;;8.50;99.90;;;;;;5007150;28;20117;-41
2022/02/08 19:42:34;;;;;;;3.45;3.15;;;8.50;99.90;;;;;;5011509;28;20034;-47
2022/02/08 19:45:10;;;;;;;5.47;3.28;;;8.50;99.90;;;;;;5011924;28;20416;-50
2022/02/08 19:47:35;;;;;;;6.20;3.38;;;8.50;99.90;;;;;;5006806;28;20101;-46
2022/02/08 19:50:01;;;;;;;7.70;3.53;;;8.50;99.90;;;;;;5006487;28;20122;-44
2022/02/08 19:52:29;;;;;;;4.10;3.42;;;8.50;99.90;;;;;;5005680;28;20402;-50
2022/02/08 19:57:39;;;;;;;5.85;4.35;;;8.50;99.90;;;;;;4994248;28;20042;-50
2022/02/08 20:00:09;;;;;;;4.97;3.72;;;8.50;99.90;;;;;;5007890;28;20026;-48
2022/02/08 20:02:42;;;;;;;5.38;3.55;;;8.40;99.90;;;;;;5015656;28;20022;-51
2022/02/08 20:05:08;;;;;;;3.92;3.33;;;8.50;99.90;;;;;;5014317;28;20555;-42
2022/02/08 20:07:34;;;;;;;7.00;3.78;;;8.50;99.90;;;;;;5015725;28;20029;-48
2022/02/08 20:10:00;;;;;;;5.35;3.83;;;8.50;99.90;;;;;;5015711;28;20121;-45
2022/02/08 20:12:26;;;;;;;4.93;4.00;;;8.50;99.90;;;;;;5013825;28;20083;-46
2022/02/08 20:14:53;;;;;;;4.22;3.60;;;8.50;99.90;;;;;;5015190;28;20022;-44